createdAt,value
2018-12-22T00:00:08.239Z,10.46
2018-12-22T00:02:36.704Z,10.30
2018-12-22T00:05:13.150Z,10.29
2018-12-22T00:07:52.361Z,10.41
2018-12-22T00:10:26.333Z,10.28
2018-12-22T00:13:04.484Z,10.35
2018-12-22T00:15:36.507Z,10.42
2018-12-22T00:18:14.030Z,10.39
2018-12-22T00:20:53.058Z,10.55
2018-12-22T00:23:27.006Z,10.58
2018-12-22T00:26:03.262Z,10.46
2018-12-22T00:28:41.471Z,10.41
2018-12-22T00:31:15.696Z,10.50
2018-12-22T00:33:51.890Z,10.44
2018-12-22T00:36:24.416Z,10.58
2018-12-22T00:39:00.727Z,10.61
2018-12-22T00:41:35.220Z,10.56
2018-12-22T00:44:04.702Z,10.65
2018-12-22T00:46:43.671Z,10.61
2018-12-22T00:49:21.525Z,10.50
2018-12-22T00:51:51.040Z,10.42
2018-12-22T00:54:28.106Z,10.42
2018-12-22T00:57:02.844Z,10.49
2018-12-22T00:59:39.920Z,10.40
2018-12-22T01:02:12.595Z,10.27
2018-12-22T01:04:50.515Z,10.29
2018-12-22T01:07:28.802Z,10.28
2018-12-22T01:10:07.931Z,10.32
2018-12-22T01:12:46.255Z,10.34
2018-12-22T01:15:23.332Z,10.46
2018-12-22T01:17:55.802Z,10.49
2018-12-22T01:20:33.172Z,10.48
2018-12-22T01:23:03.530Z,10.46
2018-12-22T01:25:32.376Z,10.48
2018-12-22T01:28:07.424Z,10.44
2018-12-22T01:30:47.996Z,10.43
2018-12-22T01:33:16.710Z,10.49
2018-12-22T01:35:53.425Z,10.48
2018-12-22T01:38:33.122Z,10.49
2018-12-22T01:41:11.114Z,10.44
2018-12-22T01:43:46.689Z,10.43
2018-12-22T01:48:59.608Z,10.31
2018-12-22T01:51:29.438Z,10.24
2018-12-22T01:54:05.314Z,10.31
2018-12-22T01:56:43.603Z,10.23
2018-12-22T01:59:17.751Z,10.31
2018-12-22T02:01:56.053Z,10.31
2018-12-22T02:04:36.391Z,10.34
2018-12-22T02:07:13.029Z,10.38
2018-12-22T02:09:51.602Z,10.28
2018-12-22T02:12:33.249Z,10.29
2018-12-22T02:15:05.933Z,10.20
2018-12-22T02:17:35.547Z,10.15
2018-12-22T02:20:13.586Z,10.13
2018-12-22T02:22:42.618Z,10.13
2018-12-22T02:25:21.326Z,10.10
2018-12-22T02:27:56.606Z,10.14
2018-12-22T02:30:25.302Z,10.14
2018-12-22T02:33:04.445Z,10.11
2018-12-22T02:35:38.469Z,10.07
2018-12-22T02:38:12.334Z,10.01
2018-12-22T02:40:49.281Z,10.09
2018-12-22T02:43:23.442Z,10.01
2018-12-22T02:45:58.314Z,10.03
2018-12-22T02:51:14.036Z,10.03
2018-12-22T02:53:52.552Z,10.05
2018-12-22T02:56:29.263Z,10.16
2018-12-22T02:59:05.630Z,10.15
2018-12-22T03:01:35.974Z,10.10
2018-12-22T03:04:09.117Z,10.08
2018-12-22T03:06:37.902Z,10.12
2018-12-22T03:09:07.886Z,10.07
2018-12-22T03:11:42.031Z,10.15
2018-12-22T03:14:20.281Z,10.09
2018-12-22T03:16:58.404Z,10.11
2018-12-22T03:19:38.744Z,10.09
2018-12-22T03:22:07.924Z,10.11
2018-12-22T03:24:42.585Z,10.06
2018-12-22T03:27:11.528Z,10.04
2018-12-22T03:29:44.605Z,10.05
2018-12-22T03:32:20.957Z,10.01
2018-12-22T03:34:56.421Z,10.02
2018-12-22T03:37:36.959Z,10.01
2018-12-22T03:40:07.050Z,9.99
2018-12-22T03:42:41.016Z,9.98
2018-12-22T03:45:13.038Z,9.90
2018-12-22T03:47:50.819Z,9.95
2018-12-22T03:50:29.545Z,9.90
2018-12-22T03:52:58.216Z,9.85
2018-12-22T03:55:27.084Z,9.80
2018-12-22T03:57:55.780Z,9.84
2018-12-22T04:00:36.895Z,9.76
2018-12-22T04:03:15.645Z,9.71
2018-12-22T04:05:44.418Z,9.75
2018-12-22T04:08:24.842Z,9.72
2018-12-22T04:11:00.304Z,9.84
2018-12-22T04:13:36.445Z,9.84
2018-12-22T04:16:10.782Z,9.74
2018-12-22T04:18:46.986Z,9.73
2018-12-22T04:21:15.497Z,9.76
2018-12-22T04:23:43.962Z,9.70
2018-12-22T04:26:12.780Z,9.65
2018-12-22T04:28:49.353Z,9.66
2018-12-22T04:31:29.595Z,9.65
2018-12-22T04:33:58.671Z,9.65
2018-12-22T04:36:27.154Z,9.60
2018-12-22T04:39:08.075Z,9.71
2018-12-22T04:41:42.035Z,9.74
2018-12-22T04:44:24.683Z,9.70
2018-12-22T04:47:02.859Z,9.77
2018-12-22T04:49:37.082Z,9.78
2018-12-22T04:52:15.096Z,9.74
2018-12-22T04:54:51.137Z,9.69
2018-12-22T04:57:25.192Z,9.73
2018-12-22T04:59:53.663Z,9.59
2018-12-22T05:02:29.534Z,9.55
2018-12-22T05:04:58.233Z,9.52
2018-12-22T05:07:34.425Z,9.45
2018-12-22T05:10:10.991Z,9.49
2018-12-22T05:12:40.640Z,9.46
2018-12-22T05:15:10.251Z,9.42
2018-12-22T05:17:39.283Z,9.38
2018-12-22T05:20:15.455Z,9.34
2018-12-22T05:22:54.408Z,9.39
2018-12-22T05:25:24.005Z,9.39
2018-12-22T05:27:54.206Z,9.37
2018-12-22T05:30:22.679Z,9.40
2018-12-22T05:32:51.630Z,9.32
2018-12-22T05:35:20.307Z,9.42
2018-12-22T05:37:58.823Z,9.46
2018-12-22T05:40:27.510Z,9.35
2018-12-22T05:43:01.598Z,9.29
2018-12-22T05:45:42.686Z,9.29
2018-12-22T05:48:11.442Z,9.29
2018-12-22T05:50:45.290Z,9.31
2018-12-22T05:55:53.310Z,9.33
2018-12-22T05:58:29.907Z,9.33
2018-12-22T06:01:03.748Z,9.36
2018-12-22T06:05:07.557Z,9.36
2018-12-22T06:07:43.577Z,9.46
2018-12-22T06:10:19.675Z,9.50
2018-12-22T06:12:55.895Z,9.51
2018-12-22T06:15:25.108Z,9.34
2018-12-22T06:17:59.282Z,9.40
2018-12-22T06:20:33.322Z,9.35
2018-12-22T06:23:07.393Z,9.35
2018-12-22T06:25:43.561Z,9.43
2018-12-22T06:28:12.685Z,9.34
2018-12-22T06:30:43.042Z,9.34
2018-12-22T06:33:17.311Z,9.36
2018-12-22T06:35:52.218Z,9.35
2018-12-22T06:38:26.874Z,9.31
2018-12-22T06:41:00.671Z,9.35
2018-12-22T06:43:35.431Z,9.33
2018-12-22T06:46:04.301Z,9.29
2018-12-22T06:48:38.878Z,9.20
2018-12-22T06:51:16.898Z,9.31
2018-12-22T06:53:57.817Z,9.34
2018-12-22T06:56:30.982Z,9.41
2018-12-22T06:58:59.902Z,9.40
2018-12-22T07:01:40.741Z,9.42
2018-12-22T07:07:04.196Z,9.55
2018-12-22T07:09:45.806Z,9.55
2018-12-22T07:12:26.326Z,9.46
2018-12-22T07:15:06.987Z,9.42
2018-12-22T07:17:48.519Z,9.50
2018-12-22T07:20:27.725Z,9.48
2018-12-22T07:23:05.756Z,9.55
2018-12-22T07:25:44.847Z,9.53
2018-12-22T07:28:20.074Z,9.50
2018-12-22T07:31:05.267Z,9.54
2018-12-22T07:33:39.092Z,9.47
2018-12-22T07:36:25.242Z,9.42
2018-12-22T07:39:01.236Z,9.49
2018-12-22T07:41:38.019Z,9.48
2018-12-22T07:44:28.973Z,9.51
2018-12-22T07:47:03.832Z,9.50
2018-12-22T07:49:49.652Z,9.51
2018-12-22T07:52:35.164Z,9.38
2018-12-22T07:55:11.718Z,9.58
2018-12-22T07:57:50.712Z,9.68
2018-12-22T08:00:34.740Z,9.70
2018-12-22T08:03:06.081Z,9.79
2018-12-22T08:05:44.663Z,9.73
2018-12-22T08:08:23.744Z,9.77
2018-12-22T08:11:02.482Z,9.84
2018-12-22T08:13:36.721Z,9.85
2018-12-22T08:16:15.090Z,9.83
2018-12-22T08:18:49.597Z,9.81
2018-12-22T08:21:27.683Z,9.82
2018-12-22T08:24:02.383Z,9.81
2018-12-22T08:26:40.486Z,9.77
2018-12-22T08:29:15.139Z,9.79
2018-12-22T08:31:51.344Z,9.83
2018-12-22T08:34:25.698Z,9.79
2018-12-22T08:37:03.685Z,9.81
2018-12-22T08:39:41.959Z,9.85
2018-12-22T08:42:19.972Z,9.83
2018-12-22T08:44:58.694Z,9.85
2018-12-22T08:47:36.689Z,9.89
2018-12-22T08:50:10.980Z,9.84
2018-12-22T08:52:49.202Z,9.85
2018-12-22T08:55:25.322Z,9.85
2018-12-22T08:58:03.375Z,9.90
2018-12-22T09:00:52.161Z,9.87
2018-12-22T09:03:23.855Z,10.00
2018-12-22T09:06:02.286Z,9.98
2018-12-22T09:08:40.608Z,9.94
2018-12-22T09:11:16.453Z,9.94
2018-12-22T09:13:51.078Z,9.91
2018-12-22T09:16:29.179Z,9.87
2018-12-22T09:19:09.563Z,9.84
2018-12-22T09:21:42.324Z,9.78
2018-12-22T09:24:22.682Z,9.72
2018-12-22T09:26:58.754Z,9.68
2018-12-22T09:29:40.763Z,9.64
2018-12-22T09:32:18.825Z,9.56
2018-12-22T09:34:52.256Z,9.57
2018-12-22T09:37:27.222Z,9.59
2018-12-22T09:40:08.383Z,9.61
2018-12-22T09:42:46.788Z,9.53
2018-12-22T09:45:22.298Z,9.72
2018-12-22T09:47:56.242Z,9.94
2018-12-22T09:50:30.455Z,10.04
2018-12-22T09:53:10.299Z,10.18
2018-12-22T09:55:49.511Z,10.28
2018-12-22T09:58:19.453Z,10.24
2018-12-22T10:00:51.786Z,10.28
2018-12-22T10:03:29.747Z,10.30
2018-12-22T10:06:04.222Z,10.36
2018-12-22T10:08:33.374Z,10.29
2018-12-22T10:11:12.503Z,10.28
2018-12-22T10:13:49.951Z,10.29
2018-12-22T10:16:24.439Z,10.43
2018-12-22T10:19:00.577Z,10.58
2018-12-22T10:21:32.778Z,10.65
2018-12-22T10:24:13.155Z,10.72
2018-12-22T10:26:46.115Z,10.84
2018-12-22T10:29:23.292Z,10.87
2018-12-22T10:31:57.059Z,10.95
2018-12-22T10:34:33.964Z,10.91
2018-12-22T10:37:08.607Z,10.79
2018-12-22T10:39:45.607Z,10.90
2018-12-22T10:42:19.608Z,10.96
2018-12-22T10:44:54.043Z,11.02
2018-12-22T10:47:22.524Z,10.81
2018-12-22T10:49:56.388Z,10.83
2018-12-22T10:52:30.854Z,10.76
2018-12-22T10:55:05.343Z,10.89
2018-12-22T10:57:40.645Z,11.04
2018-12-22T11:00:19.520Z,11.03
2018-12-22T11:02:58.264Z,11.11
2018-12-22T11:05:36.469Z,11.44
2018-12-22T11:08:13.274Z,11.16
2018-12-22T11:10:47.706Z,11.11
2018-12-22T11:13:22.007Z,11.06
2018-12-22T11:15:58.116Z,10.86
2018-12-22T11:18:32.286Z,10.73
2018-12-22T11:21:08.531Z,10.70
2018-12-22T11:23:43.746Z,10.63
2018-12-22T11:26:22.150Z,10.63
2018-12-22T11:29:00.261Z,10.63
2018-12-22T11:31:37.191Z,10.59
2018-12-22T11:34:11.065Z,10.30
2018-12-22T11:36:47.487Z,10.39
2018-12-22T11:39:21.763Z,10.32
2018-12-22T11:42:00.113Z,10.31
2018-12-22T11:44:37.954Z,10.27
2018-12-22T11:47:28.479Z,10.16
2018-12-22T11:50:05.768Z,10.16
2018-12-22T11:52:40.214Z,10.00
2018-12-22T11:55:16.568Z,9.92
2018-12-22T11:57:51.140Z,9.98
2018-12-22T12:00:29.242Z,9.77
2018-12-22T12:03:03.524Z,9.77
2018-12-22T12:05:39.783Z,9.79
2018-12-22T12:08:16.410Z,9.77
2018-12-22T12:10:49.745Z,9.65
2018-12-22T12:13:27.661Z,9.58
2018-12-22T12:16:18.460Z,9.46
2018-12-22T12:19:05.057Z,9.46
2018-12-22T12:21:43.141Z,9.46
2018-12-22T12:24:21.384Z,9.43
2018-12-22T12:26:59.702Z,9.50
2018-12-22T12:29:29.610Z,9.55
2018-12-22T12:32:07.459Z,9.61
2018-12-22T12:34:45.849Z,9.84
2018-12-22T12:37:19.939Z,10.36
2018-12-22T12:39:58.400Z,10.36
2018-12-22T12:42:35.110Z,10.24
2018-12-22T12:45:20.401Z,10.13
2018-12-22T12:47:58.910Z,10.13
2018-12-22T12:50:37.057Z,10.00
2018-12-22T12:53:13.396Z,10.08
2018-12-22T12:55:51.538Z,10.11
2018-12-22T12:58:28.182Z,10.22
2018-12-22T13:01:02.338Z,10.28
2018-12-22T13:03:42.717Z,10.20
2018-12-22T13:06:25.806Z,10.08
2018-12-22T13:09:01.169Z,10.04
2018-12-22T13:11:35.633Z,10.19
2018-12-22T13:14:18.957Z,10.22
2018-12-22T13:16:47.718Z,10.56
2018-12-22T13:19:27.766Z,11.16
2018-12-22T13:21:57.506Z,10.80
2018-12-22T13:24:31.822Z,10.67
2018-12-22T13:27:07.394Z,10.72
2018-12-22T13:29:47.164Z,10.49
2018-12-22T13:32:34.255Z,10.43
2018-12-22T13:35:15.440Z,10.46
2018-12-22T13:37:53.561Z,10.52
2018-12-22T13:40:32.828Z,10.55
2018-12-22T13:43:06.016Z,10.47
2018-12-22T13:45:38.876Z,10.21
2018-12-22T13:48:14.075Z,10.18
2018-12-22T13:50:49.113Z,10.06
2018-12-22T13:53:24.011Z,10.02
2018-12-22T13:55:58.154Z,10.03
2018-12-22T13:58:32.891Z,9.96
2018-12-22T14:01:11.666Z,9.87
2018-12-22T14:03:45.952Z,9.90
2018-12-22T14:06:45.670Z,9.90
2018-12-22T14:09:23.787Z,9.91
2018-12-22T14:11:52.415Z,9.76
2018-12-22T14:14:30.532Z,9.78
2018-12-22T14:17:14.973Z,9.87
2018-12-22T14:19:53.803Z,9.82
2018-12-22T14:22:29.385Z,9.87
2018-12-22T14:25:04.762Z,9.91
2018-12-22T14:27:40.218Z,9.91
2018-12-22T14:30:13.001Z,9.93
2018-12-22T14:32:47.266Z,9.94
2018-12-22T14:35:54.370Z,9.88
2018-12-22T14:38:29.303Z,9.90
2018-12-22T14:41:07.467Z,9.89
2018-12-22T14:43:45.856Z,9.93
2018-12-22T14:46:18.115Z,9.93
2018-12-22T14:48:56.037Z,9.78
2018-12-22T14:51:31.326Z,9.71
2018-12-22T14:54:09.718Z,9.58
2018-12-22T14:56:45.384Z,9.45
2018-12-22T14:59:16.150Z,9.35
2018-12-22T15:01:56.190Z,9.26
2018-12-22T15:04:30.770Z,9.22
2018-12-22T15:07:08.614Z,9.15
2018-12-22T15:09:37.114Z,9.05
2018-12-22T15:12:11.129Z,9.01
2018-12-22T15:14:45.590Z,9.04
2018-12-22T15:17:22.074Z,8.96
2018-12-22T15:19:59.026Z,8.90
2018-12-22T15:22:38.259Z,8.88
2018-12-22T15:25:24.707Z,8.85
2018-12-22T15:27:53.257Z,8.85
2018-12-22T15:30:30.088Z,8.74
2018-12-22T15:33:08.770Z,8.73
2018-12-22T15:35:46.808Z,8.74
2018-12-22T15:38:25.297Z,8.65
2018-12-22T15:40:59.970Z,8.59
2018-12-22T15:43:32.876Z,8.64
2018-12-22T15:46:24.955Z,8.53
2018-12-22T15:48:59.685Z,8.52
2018-12-22T15:51:43.034Z,8.61
2018-12-22T15:54:17.268Z,8.58
2018-12-22T15:56:52.475Z,8.53
2018-12-22T15:59:29.408Z,8.60
2018-12-22T16:02:06.878Z,8.59
2018-12-22T16:04:40.261Z,8.49
2018-12-22T16:07:12.348Z,8.45
2018-12-22T16:09:44.564Z,8.26
2018-12-22T16:14:53.806Z,8.22
2018-12-22T16:17:34.070Z,8.19
2018-12-22T16:20:05.818Z,8.18
2018-12-22T16:22:43.071Z,7.92
2018-12-22T16:25:29.340Z,8.04
2018-12-22T16:28:05.533Z,8.12
2018-12-22T16:30:46.818Z,8.23
2018-12-22T16:33:21.058Z,8.30
2018-12-22T16:35:58.201Z,8.47
2018-12-22T16:38:32.538Z,8.53
2018-12-22T16:41:10.782Z,8.64
2018-12-22T16:43:49.918Z,8.64
2018-12-22T16:46:19.276Z,8.73
2018-12-22T16:49:05.867Z,8.83
2018-12-22T16:51:40.439Z,8.80
2018-12-22T16:54:10.291Z,8.95
2018-12-22T16:56:44.602Z,8.92
2018-12-22T16:59:23.661Z,8.93
2018-12-22T17:02:10.119Z,9.01
2018-12-22T17:04:49.442Z,9.00
2018-12-22T17:07:18.234Z,8.87
2018-12-22T17:09:52.214Z,8.91
2018-12-22T17:12:30.392Z,8.93
2018-12-22T17:15:06.422Z,8.85
2018-12-22T17:17:35.317Z,8.86
2018-12-22T17:20:10.955Z,8.83
2018-12-22T17:22:56.586Z,8.81
2018-12-22T17:25:34.581Z,8.80
2018-12-22T17:28:06.339Z,8.77
2018-12-22T17:30:43.688Z,8.73
2018-12-22T17:33:18.786Z,8.76
2018-12-22T17:35:55.575Z,8.70
2018-12-22T17:38:32.300Z,8.67
2018-12-22T17:41:09.281Z,8.76
2018-12-22T17:43:44.685Z,8.72
2018-12-22T17:46:18.236Z,8.73
2018-12-22T17:48:50.054Z,8.66
2018-12-22T17:51:44.842Z,8.68
2018-12-22T17:54:29.419Z,8.65
2018-12-22T17:57:05.370Z,8.78
2018-12-22T17:59:42.172Z,8.72
2018-12-22T18:02:17.377Z,8.80
2018-12-22T18:04:55.692Z,8.74
2018-12-22T18:07:31.857Z,8.67
2018-12-22T18:10:07.534Z,8.69
2018-12-22T18:12:45.979Z,8.63
2018-12-22T18:15:22.332Z,8.59
2018-12-22T18:17:56.545Z,8.66
2018-12-22T18:20:35.426Z,8.66
2018-12-22T18:23:09.023Z,8.67
2018-12-22T18:25:46.029Z,8.51
2018-12-22T18:28:25.873Z,8.67
2018-12-22T18:31:05.046Z,8.59
2018-12-22T18:33:43.220Z,8.58
2018-12-22T18:36:20.535Z,8.59
2018-12-22T18:38:56.169Z,8.55
2018-12-22T18:41:33.407Z,8.51
2018-12-22T18:44:05.781Z,8.54
2018-12-22T18:46:40.693Z,8.48
2018-12-22T18:49:22.525Z,8.49
2018-12-22T18:51:56.065Z,8.44
2018-12-22T18:54:34.045Z,8.44
2018-12-22T18:57:08.318Z,8.35
2018-12-22T18:59:43.391Z,8.43
2018-12-22T19:02:20.177Z,8.40
2018-12-22T19:04:52.819Z,8.33
2018-12-22T19:07:27.675Z,8.32
2018-12-22T19:10:01.773Z,8.29
2018-12-22T19:12:36.064Z,8.33
2018-12-22T19:15:14.231Z,8.31
2018-12-22T19:17:56.505Z,8.43
2018-12-22T19:20:34.645Z,8.36
2018-12-22T19:23:11.017Z,8.38
2018-12-22T19:25:48.943Z,8.33
2018-12-22T19:28:25.852Z,8.36
2018-12-22T19:31:03.058Z,8.41
2018-12-22T19:33:35.285Z,8.41
2018-12-22T19:36:09.538Z,8.44
2018-12-22T19:38:47.698Z,8.29
2018-12-22T19:41:21.915Z,8.26
2018-12-22T19:43:55.872Z,8.23
2018-12-22T19:46:30.752Z,8.24
2018-12-22T19:49:07.423Z,8.25
2018-12-22T19:51:41.707Z,8.29
2018-12-22T19:54:20.419Z,8.27
2018-12-22T19:56:57.486Z,8.28
2018-12-22T19:59:32.982Z,8.27
2018-12-22T20:02:09.599Z,8.27
2018-12-22T20:04:44.435Z,8.30
2018-12-22T20:07:22.361Z,8.26
2018-12-22T20:09:59.354Z,8.15
2018-12-22T20:12:41.245Z,8.18
2018-12-22T20:15:23.018Z,8.16
2018-12-22T20:17:58.022Z,8.10
2018-12-22T20:20:29.617Z,8.16
2018-12-22T20:23:09.586Z,8.10
2018-12-22T20:25:46.458Z,8.12
2018-12-22T20:28:25.406Z,8.07
2018-12-22T20:31:06.653Z,8.00
2018-12-22T20:33:41.718Z,7.92
2018-12-22T20:36:17.519Z,8.03
2018-12-22T20:38:51.690Z,8.03
2018-12-22T20:41:24.404Z,7.92
2018-12-22T20:44:01.501Z,7.88
2018-12-22T20:46:36.654Z,7.85
2018-12-22T20:49:11.235Z,7.91
2018-12-22T20:51:45.721Z,7.82
2018-12-22T20:54:20.550Z,7.88
2018-12-22T20:56:55.622Z,7.88
2018-12-22T20:59:30.079Z,7.85
2018-12-22T21:02:07.986Z,7.74
2018-12-22T21:04:44.313Z,7.79
2018-12-22T21:07:22.320Z,7.88
2018-12-22T21:10:00.503Z,7.84
2018-12-22T21:12:29.112Z,7.90
2018-12-22T21:15:00.195Z,7.87
2018-12-22T21:17:33.464Z,7.87
2018-12-22T21:20:11.901Z,7.89
2018-12-22T21:22:51.294Z,7.86
2018-12-22T21:25:30.119Z,7.86
2018-12-22T21:28:08.327Z,7.91
2018-12-22T21:30:41.381Z,8.04
2018-12-22T21:33:14.833Z,7.89
2018-12-22T21:35:53.443Z,7.99
2018-12-22T21:38:31.372Z,7.93
2018-12-22T21:41:06.160Z,7.93
2018-12-22T21:43:41.189Z,7.85
2018-12-22T21:46:15.568Z,7.94
2018-12-22T21:48:53.677Z,7.93
2018-12-22T21:51:30.223Z,7.92
2018-12-22T21:54:04.781Z,8.03
2018-12-22T21:56:43.654Z,7.98
2018-12-22T21:59:12.113Z,7.98
2018-12-22T22:01:50.430Z,8.09
2018-12-22T22:04:24.854Z,8.06
2018-12-22T22:06:59.227Z,8.03
2018-12-22T22:09:34.839Z,7.80
2018-12-22T22:12:09.636Z,7.81
2018-12-22T22:14:50.363Z,7.85
2018-12-22T22:17:26.291Z,7.94
2018-12-22T22:19:54.787Z,7.73
2018-12-22T22:22:32.666Z,7.68
2018-12-22T22:25:09.916Z,7.52
2018-12-22T22:27:45.256Z,7.50
2018-12-22T22:30:14.706Z,7.54
2018-12-22T22:32:56.366Z,7.62
2018-12-22T22:35:35.540Z,7.68
2018-12-22T22:38:07.958Z,7.46
2018-12-22T22:40:44.674Z,7.46
2018-12-22T22:43:20.681Z,7.41
2018-12-22T22:45:52.645Z,7.42
2018-12-22T22:48:31.085Z,7.45
2018-12-22T22:51:09.754Z,7.46
2018-12-22T22:53:47.902Z,7.43
2018-12-22T22:56:27.256Z,7.32
2018-12-22T22:59:03.713Z,7.28
2018-12-22T23:01:42.511Z,7.21
2018-12-22T23:04:22.508Z,7.12
2018-12-22T23:06:59.404Z,7.24
2018-12-22T23:09:35.906Z,7.32
2018-12-22T23:12:10.369Z,7.37
2018-12-22T23:14:45.182Z,7.39
2018-12-22T23:17:21.401Z,7.40
2018-12-22T23:19:58.199Z,7.40
2018-12-22T23:22:32.031Z,7.41
2018-12-22T23:25:08.942Z,7.41
2018-12-22T23:27:48.559Z,7.41
2018-12-22T23:30:28.141Z,7.41
2018-12-22T23:33:02.617Z,7.39
2018-12-22T23:35:39.781Z,7.37
2018-12-22T23:38:13.852Z,7.39
2018-12-22T23:40:42.802Z,7.35
2018-12-22T23:43:21.438Z,7.32
2018-12-22T23:45:50.614Z,7.34
2018-12-22T23:48:28.638Z,7.34
2018-12-22T23:51:06.694Z,7.41
2018-12-22T23:53:45.612Z,7.40
2018-12-22T23:56:24.716Z,7.44
2018-12-22T23:58:54.953Z,7.42
